createdAt,value
2018-12-10T00:00:27.285Z,68.60
2018-12-10T00:03:03.326Z,69.10
2018-12-10T00:05:37.053Z,70.40
2018-12-10T00:08:07.737Z,68.30
2018-12-10T00:10:41.667Z,69.40
2018-12-10T00:13:11.071Z,68.30
2018-12-10T00:15:41.470Z,68.80
2018-12-10T00:18:12.357Z,68.50
2018-12-10T00:20:42.976Z,68.70
2018-12-10T00:23:13.407Z,68.40
2018-12-10T00:25:44.600Z,68.70
2018-12-10T00:28:15.224Z,68.30
2018-12-10T00:30:46.120Z,67.80
2018-12-10T00:33:17.357Z,67.20
2018-12-10T00:35:48.009Z,67.60
2018-12-10T00:38:19.100Z,67.50
2018-12-10T00:40:49.767Z,67.30
2018-12-10T00:43:20.578Z,67.10
2018-12-10T00:45:51.440Z,66.40
2018-12-10T00:48:22.842Z,66.40
2018-12-10T00:50:53.338Z,66.40
2018-12-10T00:53:23.973Z,66.40
2018-12-10T00:55:54.311Z,66.30
2018-12-10T00:58:25.149Z,66.50
2018-12-10T01:00:55.704Z,67.00
2018-12-10T01:03:26.771Z,67.20
2018-12-10T01:05:57.405Z,67.60
2018-12-10T01:08:28.154Z,66.90
2018-12-10T01:10:59.204Z,67.10
2018-12-10T01:13:30.286Z,67.90
2018-12-10T01:16:01.286Z,67.40
2018-12-10T01:18:32.124Z,67.70
2018-12-10T01:21:02.762Z,67.80
2018-12-10T01:23:34.282Z,67.30
2018-12-10T01:26:08.205Z,67.40
2018-12-10T01:28:38.787Z,66.70
2018-12-10T01:31:09.627Z,66.90
2018-12-10T01:33:40.577Z,66.90
2018-12-10T01:36:11.699Z,66.30
2018-12-10T01:38:42.531Z,66.80
2018-12-10T01:41:13.297Z,66.90
2018-12-10T01:43:43.873Z,67.50
2018-12-10T01:46:15.128Z,66.30
2018-12-10T01:48:45.802Z,66.00
2018-12-10T01:51:16.578Z,65.70
2018-12-10T01:53:47.133Z,65.20
2018-12-10T01:56:17.754Z,65.90
2018-12-10T01:58:48.408Z,65.30
2018-12-10T02:01:18.855Z,65.40
2018-12-10T02:03:49.213Z,65.00
2018-12-10T02:06:20.661Z,65.70
2018-12-10T02:08:51.109Z,66.30
2018-12-10T02:11:21.652Z,66.30
2018-12-10T02:13:52.188Z,65.40
2018-12-10T02:16:23.118Z,65.90
2018-12-10T02:18:54.050Z,65.10
2018-12-10T02:21:24.922Z,65.60
2018-12-10T02:23:55.551Z,65.40
2018-12-10T02:26:29.013Z,65.70
2018-12-10T02:29:05.051Z,66.20
2018-12-10T02:31:35.622Z,66.10
2018-12-10T02:34:05.980Z,65.90
2018-12-10T02:36:36.390Z,65.00
2018-12-10T02:39:07.276Z,64.90
2018-12-10T02:41:37.793Z,64.90
2018-12-10T02:44:08.219Z,64.90
2018-12-10T02:46:38.757Z,63.90
2018-12-10T02:49:09.244Z,64.00
2018-12-10T02:51:39.726Z,64.30
2018-12-10T02:54:10.555Z,65.00
2018-12-10T02:56:41.783Z,64.90
2018-12-10T02:59:12.536Z,64.70
2018-12-10T03:01:43.279Z,63.80
2018-12-10T03:04:14.004Z,64.20
2018-12-10T03:06:44.818Z,64.70
2018-12-10T03:09:15.995Z,64.10
2018-12-10T03:11:48.855Z,64.80
2018-12-10T03:14:19.495Z,64.40
2018-12-10T03:16:49.812Z,63.80
2018-12-10T03:19:21.055Z,63.70
2018-12-10T03:21:51.583Z,63.90
2018-12-10T03:24:22.152Z,64.00
2018-12-10T03:26:52.444Z,63.80
2018-12-10T03:29:22.859Z,64.00
2018-12-10T03:31:53.389Z,64.60
2018-12-10T03:34:23.920Z,64.90
2018-12-10T03:36:54.303Z,65.70
2018-12-10T03:39:24.806Z,64.30
2018-12-10T03:41:55.138Z,64.80
2018-12-10T03:44:25.403Z,65.20
2018-12-10T03:46:55.677Z,65.10
2018-12-10T03:49:26.243Z,65.40
2018-12-10T03:51:56.588Z,64.40
2018-12-10T03:54:26.913Z,63.60
2018-12-10T03:56:57.320Z,63.70
2018-12-10T03:59:27.569Z,64.20
2018-12-10T04:01:57.987Z,64.10
2018-12-10T04:04:28.359Z,64.20
2018-12-10T04:06:58.652Z,65.60
2018-12-10T04:09:30.375Z,64.90
2018-12-10T04:12:00.721Z,64.00
2018-12-10T04:14:32.454Z,64.60
2018-12-10T04:17:03.250Z,65.00
2018-12-10T04:19:33.742Z,65.80
2018-12-10T04:22:04.083Z,65.90
2018-12-10T04:24:34.483Z,66.60
2018-12-10T04:27:05.159Z,66.80
2018-12-10T04:29:35.725Z,67.00
2018-12-10T04:32:06.271Z,66.70
2018-12-10T04:34:36.673Z,66.50
2018-12-10T04:37:07.223Z,67.30
2018-12-10T04:39:39.654Z,67.40
2018-12-10T04:42:10.401Z,65.90
2018-12-10T04:44:41.174Z,67.70
2018-12-10T04:47:11.698Z,69.30
2018-12-10T04:49:42.168Z,68.20
2018-12-10T04:52:12.786Z,68.90
2018-12-10T04:54:43.333Z,68.50
2018-12-10T04:57:14.465Z,68.70
2018-12-10T04:59:52.615Z,68.90
2018-12-10T05:02:17.428Z,68.30
2018-12-10T05:04:47.925Z,68.70
2018-12-10T05:07:18.324Z,67.50
2018-12-10T05:09:50.094Z,67.90
2018-12-10T05:12:20.555Z,67.50
2018-12-10T05:14:50.985Z,67.50
2018-12-10T05:17:22.119Z,67.00
2018-12-10T05:19:52.565Z,65.50
2018-12-10T05:22:23.405Z,66.50
2018-12-10T05:24:53.930Z,66.70
2018-12-10T05:27:24.327Z,65.90
2018-12-10T05:29:55.301Z,65.00
2018-12-10T05:32:26.428Z,64.80
2018-12-10T05:34:57.555Z,65.10
2018-12-10T05:37:28.502Z,66.50
2018-12-10T05:39:59.347Z,67.00
2018-12-10T05:42:30.174Z,69.80
2018-12-10T05:45:01.520Z,75.50
2018-12-10T05:47:36.335Z,78.20
2018-12-10T05:50:07.561Z,80.20
2018-12-10T05:52:38.323Z,81.10
2018-12-10T05:55:09.034Z,84.50
2018-12-10T05:57:39.885Z,85.30
2018-12-10T06:00:10.968Z,86.60
2018-12-10T06:02:41.785Z,88.00
2018-12-10T06:05:13.719Z,87.30
2018-12-10T06:07:46.206Z,87.10
2018-12-10T06:10:17.081Z,84.00
2018-12-10T06:12:48.000Z,83.50
2018-12-10T06:15:18.712Z,82.10
2018-12-10T06:17:49.170Z,84.20
2018-12-10T06:20:24.345Z,82.90
2018-12-10T07:32:55.051Z,81.60
2018-12-10T07:35:27.207Z,81.20
2018-12-10T07:37:57.889Z,81.10
2018-12-10T07:40:28.532Z,80.10
2018-12-10T07:42:59.284Z,78.90
2018-12-10T07:45:29.720Z,79.20
2018-12-10T07:48:00.650Z,77.60
2018-12-10T07:50:31.392Z,77.10
2018-12-10T07:53:02.449Z,75.80
2018-12-10T07:55:32.899Z,75.90
2018-12-10T07:58:03.336Z,76.70
2018-12-10T08:00:33.912Z,77.60
2018-12-10T08:03:04.335Z,74.90
2018-12-10T08:05:34.854Z,74.40
2018-12-10T08:08:05.227Z,74.00
2018-12-10T08:10:36.647Z,75.10
2018-12-10T08:13:07.252Z,74.80
2018-12-10T08:15:37.997Z,75.50
2018-12-10T08:18:09.146Z,74.20
2018-12-10T08:20:40.570Z,72.10
2018-12-10T08:23:13.763Z,74.20
2018-12-10T08:25:44.778Z,74.10
2018-12-10T08:28:15.604Z,73.80
2018-12-10T08:30:46.333Z,72.00
2018-12-10T08:33:17.128Z,72.20
2018-12-10T08:35:47.511Z,71.00
2018-12-10T08:38:18.115Z,71.40
2018-12-10T08:40:48.664Z,69.60
2018-12-10T08:43:20.416Z,69.70
2018-12-10T08:45:51.305Z,69.70
2018-12-10T08:48:21.874Z,68.40
2018-12-10T08:50:52.751Z,68.90
2018-12-10T08:53:23.345Z,67.10
2018-12-10T08:55:53.894Z,67.50
2018-12-10T08:58:24.408Z,68.30
2018-12-10T09:00:54.949Z,66.90
2018-12-10T09:03:25.968Z,68.10
2018-12-10T09:05:56.518Z,66.60
2018-12-10T09:08:27.164Z,65.60
2018-12-10T09:10:57.817Z,66.30
2018-12-10T10:07:28.509Z,60.90
2018-12-10T10:10:07.179Z,61.00
2018-12-10T10:12:38.782Z,61.00
2018-12-10T10:15:11.474Z,61.00
2018-12-10T10:17:45.402Z,59.80
2018-12-10T10:20:16.458Z,60.60
2018-12-10T10:22:49.020Z,60.50
2018-12-10T10:25:21.119Z,61.20
2018-12-10T10:27:52.126Z,60.00
2018-12-10T10:30:29.428Z,60.30
2018-12-10T10:33:01.009Z,58.40
2018-12-10T10:35:32.101Z,59.70
2018-12-10T10:38:04.597Z,58.80
2018-12-10T10:40:39.915Z,58.40
2018-12-10T10:43:12.957Z,59.00
2018-12-10T10:46:08.754Z,59.20
2018-12-10T10:48:45.628Z,59.60
2018-12-10T11:13:20.287Z,58.30
2018-12-10T11:15:51.200Z,59.10
2018-12-10T11:18:24.598Z,59.40
2018-12-10T11:20:59.085Z,58.40
2018-12-10T11:23:31.413Z,60.00
2018-12-10T11:26:18.108Z,59.10
2018-12-10T11:28:56.788Z,59.70
2018-12-10T11:31:28.375Z,59.90
2018-12-10T11:34:01.198Z,59.60
2018-12-10T11:37:15.128Z,59.20
2018-12-10T11:40:48.492Z,60.00
2018-12-10T11:43:23.972Z,59.60
2018-12-10T11:45:57.210Z,59.60
2018-12-10T11:48:29.002Z,59.20
2018-12-10T11:51:01.286Z,58.80
2018-12-10T11:53:34.019Z,58.90
2018-12-10T11:56:07.271Z,58.00
2018-12-10T11:58:45.190Z,58.60
2018-12-10T12:01:19.295Z,58.10
2018-12-10T12:03:52.650Z,57.40
2018-12-10T12:06:25.281Z,58.20
2018-12-10T12:08:58.015Z,57.90
2018-12-10T12:11:31.559Z,58.40
2018-12-10T12:14:11.768Z,56.90
2018-12-10T12:16:45.505Z,56.80
2018-12-10T12:19:22.371Z,57.10
2018-12-10T12:22:04.994Z,56.90
2018-12-10T12:24:37.351Z,56.90
2018-12-10T12:27:09.859Z,56.90
2018-12-10T12:29:42.347Z,54.80
2018-12-10T12:37:20.887Z,56.20
2018-12-10T13:40:16.373Z,52.50
2018-12-10T13:43:07.591Z,52.40
2018-12-10T13:45:39.549Z,52.50
2018-12-10T13:48:10.518Z,52.40
2018-12-10T13:50:41.581Z,52.50
2018-12-10T14:12:13.914Z,53.10
2018-12-10T14:16:20.995Z,53.80
2018-12-10T14:18:52.342Z,55.10
2018-12-10T14:21:23.860Z,55.60
2018-12-10T14:23:54.862Z,56.20
2018-12-10T14:26:26.029Z,56.70
2018-12-10T14:32:22.636Z,56.30
2018-12-10T14:34:53.890Z,56.70
2018-12-10T14:37:52.533Z,57.60
2018-12-10T14:40:24.654Z,58.00
2018-12-10T14:42:57.314Z,58.30
2018-12-10T14:45:30.798Z,57.90
2018-12-10T14:48:09.452Z,58.00
2018-12-10T14:50:42.952Z,58.80
2018-12-10T14:53:28.484Z,58.50
2018-12-10T14:56:01.116Z,58.90
2018-12-10T14:58:34.752Z,58.40
2018-12-10T15:01:08.435Z,58.80
2018-12-10T15:03:40.819Z,59.40
2018-12-10T15:06:11.846Z,60.10
2018-12-10T15:08:42.978Z,60.90
2018-12-10T15:11:13.849Z,60.50
2018-12-10T15:13:47.886Z,59.80
2018-12-10T15:16:21.136Z,59.00
2018-12-10T15:20:45.606Z,58.00
2018-12-10T15:23:21.773Z,58.10
2018-12-10T15:25:52.534Z,57.50
2018-12-10T18:03:07.561Z,61.70
2018-12-10T18:05:45.836Z,62.40
2018-12-10T18:08:17.578Z,62.60
2018-12-10T18:10:52.058Z,62.30
2018-12-10T18:13:41.588Z,62.40
2018-12-10T18:16:23.471Z,61.80
2018-12-10T18:18:55.339Z,61.90
2018-12-10T18:21:29.707Z,62.40
2018-12-10T18:24:04.579Z,60.70
2018-12-10T18:26:47.600Z,60.90
2018-12-10T18:29:26.227Z,61.10
2018-12-10T18:31:57.763Z,60.70
2018-12-10T18:37:24.389Z,59.30
2018-12-10T18:39:56.926Z,59.30
2018-12-10T18:42:27.516Z,59.20
2018-12-10T18:44:58.778Z,60.40
2018-12-10T18:47:33.712Z,60.00
2018-12-10T18:50:07.394Z,60.50
2018-12-10T18:52:39.288Z,60.90
2018-12-10T18:55:16.751Z,60.50
2018-12-10T18:57:47.934Z,60.90
2018-12-10T19:29:55.374Z,90.90
2018-12-10T19:32:25.887Z,90.70
2018-12-10T19:34:56.860Z,91.20
2018-12-10T19:37:27.272Z,90.90
2018-12-10T19:39:58.091Z,88.10
2018-12-10T19:42:28.446Z,83.40
2018-12-10T19:44:59.967Z,85.40
2018-12-10T19:47:30.584Z,86.90
2018-12-10T19:50:02.151Z,84.00
2018-12-10T19:52:35.429Z,87.50
2018-12-10T19:55:08.191Z,82.20
2018-12-10T19:57:39.625Z,85.20
2018-12-10T20:00:11.597Z,85.90
2018-12-10T20:02:43.131Z,88.00
2018-12-10T20:05:15.346Z,88.50
2018-12-10T20:07:46.581Z,90.20
2018-12-10T20:10:18.608Z,88.70
2018-12-10T20:12:51.972Z,89.90
2018-12-10T20:15:23.438Z,90.00
2018-12-10T20:17:54.597Z,89.70
2018-12-10T20:20:24.892Z,88.40
2018-12-10T20:26:00.011Z,90.10
2018-12-10T20:28:50.878Z,88.90
2018-12-10T20:41:05.027Z,90.00
2018-12-10T21:02:29.653Z,90.00
2018-12-10T21:05:00.665Z,90.00
2018-12-10T21:07:31.596Z,90.10
2018-12-10T21:10:02.911Z,90.10
2018-12-10T21:12:33.642Z,89.50
2018-12-10T21:15:05.477Z,89.80
2018-12-10T21:17:36.190Z,88.20
2018-12-10T21:20:07.254Z,89.70
2018-12-10T21:22:38.400Z,89.90
2018-12-10T21:25:09.093Z,90.10
2018-12-10T21:27:39.756Z,90.70
2018-12-10T21:30:10.278Z,90.90
2018-12-10T21:32:40.952Z,90.70
2018-12-10T21:35:11.679Z,90.40
2018-12-10T21:37:42.286Z,90.90
2018-12-10T21:40:13.131Z,91.00
2018-12-10T21:42:43.820Z,91.20
2018-12-10T21:45:15.443Z,91.40
2018-12-10T21:47:46.150Z,92.00
2018-12-10T21:50:17.149Z,91.50
2018-12-10T22:22:41.516Z,80.90
2018-12-10T22:25:12.807Z,80.80
2018-12-10T22:27:44.135Z,82.30
2018-12-10T22:30:15.764Z,80.60
2018-12-10T22:32:48.011Z,82.40
2018-12-10T22:35:19.710Z,81.50
2018-12-10T22:37:50.079Z,81.30
2018-12-10T22:40:20.973Z,82.20
2018-12-10T22:42:53.441Z,84.20
2018-12-10T22:45:24.355Z,84.90
2018-12-10T22:47:55.715Z,85.90
2018-12-10T22:50:27.133Z,89.90
2018-12-10T22:52:58.711Z,87.40
2018-12-10T22:55:29.627Z,84.70
2018-12-10T22:58:00.964Z,86.30
2018-12-10T23:00:37.056Z,83.40
2018-12-10T23:03:08.599Z,81.60
2018-12-10T23:05:39.137Z,82.60
2018-12-10T23:08:09.834Z,85.10
2018-12-10T23:10:40.310Z,85.90
2018-12-10T23:13:11.647Z,87.40
2018-12-10T23:15:42.250Z,87.80
2018-12-10T23:18:13.126Z,85.80
2018-12-10T23:20:43.587Z,85.90
2018-12-10T23:23:14.579Z,87.10
2018-12-10T23:25:44.949Z,86.70
2018-12-10T23:28:15.225Z,85.80
2018-12-10T23:30:45.671Z,85.70
2018-12-10T23:33:15.977Z,85.20
2018-12-10T23:35:46.302Z,85.90
2018-12-10T23:38:16.583Z,85.90
2018-12-10T23:40:46.886Z,87.30
2018-12-10T23:43:26.141Z,87.90
2018-12-10T23:45:56.350Z,86.80
2018-12-10T23:48:26.674Z,87.60
2018-12-10T23:50:57.013Z,88.40
2018-12-10T23:53:27.435Z,87.00
2018-12-10T23:55:57.795Z,85.70
2018-12-10T23:58:30.395Z,86.20
